Berlare, Belgium
Current Conditions -  °F | °C
As of 1:20 PM on Monday 20 Oct 2014 (Local Time) from EBAW Reporting Station
Few Clouds Few Clouds  
Wind Chill: 61°   Ceiling: Unl
Heat Index: 61°   Visibility: 6mi
Dew Point: 52°   Wind: 10mph
Humidity: 72%   Direction: 260°W
Pressure: 30.06"   Gusts: NA
Location:  51.03°N, 4°E
Report Text: EBAW 201120Z 26009KT 230V300 9999 FEW022 16/11 Q1018 NOSIG
Loading
Personal Weather Stations






























Interactive Weather Map
Tropical Storm Tracking
New forecast layout! Learn more

10-Day Weather Forecast

Advertisements
Track Severe Weather on mobile